sensor_id;sensor_type;location;lat;lon;timestamp;pressure;altitude;pressure_sealevel;temperature;humidity
5651;BME280;40241;52.684;9.758;2023-03-18T00:02:01;100570.19;;;13.16;57.44
5651;BME280;40241;52.684;9.758;2023-03-18T00:04:26;100564.19;;;13.12;57.38
5651;BME280;40241;52.684;9.758;2023-03-18T00:06:52;100571.25;;;13.08;57.38
5651;BME280;40241;52.684;9.758;2023-03-18T00:09:18;100571.75;;;13.06;57.59
5651;BME280;40241;52.684;9.758;2023-03-18T00:11:46;100569.25;;;13.03;57.96
5651;BME280;40241;52.684;9.758;2023-03-18T00:14:12;100568.00;;;13.04;57.81
5651;BME280;40241;52.684;9.758;2023-03-18T00:16:37;100571.00;;;13.00;57.98
5651;BME280;40241;52.684;9.758;2023-03-18T00:19:04;100574.00;;;13.02;58.00
5651;BME280;40241;52.684;9.758;2023-03-18T00:21:31;100565.47;;;13.00;57.96
5651;BME280;40241;52.684;9.758;2023-03-18T00:23:57;100564.22;;;13.01;58.06
5651;BME280;40241;52.684;9.758;2023-03-18T00:26:24;100570.53;;;12.96;58.23
5651;BME280;40241;52.684;9.758;2023-03-18T00:28:50;100572.53;;;13.01;58.08
5651;BME280;40241;52.684;9.758;2023-03-18T00:31:16;100577.00;;;13.04;58.32
5651;BME280;40241;52.684;9.758;2023-03-18T00:33:42;100573.78;;;13.06;57.98
5651;BME280;40241;52.684;9.758;2023-03-18T00:36:10;100581.53;;;13.07;58.29
5651;BME280;40241;52.684;9.758;2023-03-18T00:38:38;100582.78;;;13.06;58.30
5651;BME280;40241;52.684;9.758;2023-03-18T00:41:05;100585.56;;;13.06;58.22
5651;BME280;40241;52.684;9.758;2023-03-18T00:43:44;100585.28;;;13.04;58.48
5651;BME280;40241;52.684;9.758;2023-03-18T00:46:17;100588.84;;;13.05;58.53
5651;BME280;40241;52.684;9.758;2023-03-18T00:48:43;100590.34;;;13.06;58.24
5651;BME280;40241;52.684;9.758;2023-03-18T00:51:10;100586.56;;;13.03;58.38
5651;BME280;40241;52.684;9.758;2023-03-18T00:53:46;100588.63;;;12.97;58.34
5651;BME280;40241;52.684;9.758;2023-03-18T00:56:13;100592.16;;;12.92;58.45
5651;BME280;40241;52.684;9.758;2023-03-18T00:58:39;100580.63;;;12.88;58.65
5651;BME280;40241;52.684;9.758;2023-03-18T01:01:05;100593.44;;;12.86;58.65
5651;BME280;40241;52.684;9.758;2023-03-18T01:03:31;100596.94;;;12.86;58.79
5651;BME280;40241;52.684;9.758;2023-03-18T01:05:58;100606.25;;;12.83;58.74
5651;BME280;40241;52.684;9.758;2023-03-18T01:08:24;100604.00;;;12.82;58.76
5651;BME280;40241;52.684;9.758;2023-03-18T01:10:49;100603.00;;;12.79;59.08
5651;BME280;40241;52.684;9.758;2023-03-18T01:13:15;100608.28;;;12.77;59.30
5651;BME280;40241;52.684;9.758;2023-03-18T01:15:41;100610.53;;;12.78;59.06
5651;BME280;40241;52.684;9.758;2023-03-18T01:18:08;100614.28;;;12.81;59.03
5651;BME280;40241;52.684;9.758;2023-03-18T01:20:35;100610.00;;;12.80;59.29
5651;BME280;40241;52.684;9.758;2023-03-18T01:23:02;100611.28;;;12.79;59.30
5651;BME280;40241;52.684;9.758;2023-03-18T01:25:27;100618.28;;;12.80;59.15
5651;BME280;40241;52.684;9.758;2023-03-18T01:27:53;100609.28;;;12.79;59.34
5651;BME280;40241;52.684;9.758;2023-03-18T01:30:18;100613.53;;;12.80;59.33
5651;BME280;40241;52.684;9.758;2023-03-18T01:32:44;100614.78;;;12.79;59.45
5651;BME280;40241;52.684;9.758;2023-03-18T01:35:11;100610.53;;;12.78;59.35
5651;BME280;40241;52.684;9.758;2023-03-18T01:37:37;100599.47;;;12.78;59.53
5651;BME280;40241;52.684;9.758;2023-03-18T01:40:04;100603.00;;;12.79;59.48
5651;BME280;40241;52.684;9.758;2023-03-18T01:42:29;100601.00;;;12.79;59.49
5651;BME280;40241;52.684;9.758;2023-03-18T01:45:15;100600.22;;;12.79;60.72
5651;BME280;40241;52.684;9.758;2023-03-18T01:47:42;100606.28;;;12.77;59.60
5651;BME280;40241;52.684;9.758;2023-03-18T01:50:15;100603.75;;;12.79;59.98
5651;BME280;40241;52.684;9.758;2023-03-18T01:52:42;100612.75;;;12.80;59.74
5651;BME280;40241;52.684;9.758;2023-03-18T01:55:13;100611.00;;;12.82;59.64
5651;BME280;40241;52.684;9.758;2023-03-18T01:57:41;100599.97;;;12.82;59.71
5651;BME280;40241;52.684;9.758;2023-03-18T02:00:07;100614.00;;;12.85;59.82
5651;BME280;40241;52.684;9.758;2023-03-18T02:02:38;100625.81;;;12.85;59.91
5651;BME280;40241;52.684;9.758;2023-03-18T02:05:07;100630.06;;;12.86;59.94
5651;BME280;40241;52.684;9.758;2023-03-18T02:07:35;100625.28;;;12.87;59.94
5651;BME280;40241;52.684;9.758;2023-03-18T02:10:07;100624.03;;;12.88;60.04
5651;BME280;40241;52.684;9.758;2023-03-18T02:12:37;100628.56;;;12.85;59.92
5651;BME280;40241;52.684;9.758;2023-03-18T02:15:06;100612.03;;;12.79;60.26
5651;BME280;40241;52.684;9.758;2023-03-18T02:17:36;100618.28;;;12.80;60.21
5651;BME280;40241;52.684;9.758;2023-03-18T02:20:23;100616.81;;;12.79;61.24
5651;BME280;40241;52.684;9.758;2023-03-18T02:22:55;100619.81;;;12.81;60.17
5651;BME280;40241;52.684;9.758;2023-03-18T02:25:34;100614.53;;;12.83;60.23
5651;BME280;40241;52.684;9.758;2023-03-18T02:28:07;100621.28;;;12.82;60.51
5651;BME280;40241;52.684;9.758;2023-03-18T02:30:40;100620.28;;;12.85;60.71
5651;BME280;40241;52.684;9.758;2023-03-18T02:33:08;100620.53;;;12.87;60.38
5651;BME280;40241;52.684;9.758;2023-03-18T02:35:35;100629.56;;;12.88;60.38
5651;BME280;40241;52.684;9.758;2023-03-18T02:38:01;100629.03;;;12.89;60.33
5651;BME280;40241;52.684;9.758;2023-03-18T02:40:30;100624.78;;;12.88;60.49
5651;BME280;40241;52.684;9.758;2023-03-18T02:43:14;100626.28;;;12.89;61.23
5651;BME280;40241;52.684;9.758;2023-03-18T02:48:26;100634.06;;;12.91;60.57
5651;BME280;40241;52.684;9.758;2023-03-18T02:50:54;100631.56;;;12.93;60.44
5651;BME280;40241;52.684;9.758;2023-03-18T02:53:20;100638.31;;;12.92;60.57
5651;BME280;40241;52.684;9.758;2023-03-18T02:55:45;100635.03;;;12.93;60.53
5651;BME280;40241;52.684;9.758;2023-03-18T02:58:11;100630.28;;;12.94;60.47
5651;BME280;40241;52.684;9.758;2023-03-18T03:00:37;100631.78;;;12.95;60.70
5651;BME280;40241;52.684;9.758;2023-03-18T03:03:03;100625.50;;;12.94;60.64
5651;BME280;40241;52.684;9.758;2023-03-18T03:05:30;100628.28;;;12.94;60.76
5651;BME280;40241;52.684;9.758;2023-03-18T03:07:55;100634.56;;;12.95;60.71
5651;BME280;40241;52.684;9.758;2023-03-18T03:10:21;100629.78;;;12.95;60.69
5651;BME280;40241;52.684;9.758;2023-03-18T03:12:46;100629.78;;;12.95;60.64
5651;BME280;40241;52.684;9.758;2023-03-18T03:15:12;100630.75;;;12.98;60.67
5651;BME280;40241;52.684;9.758;2023-03-18T03:17:38;100631.53;;;12.98;60.73
5651;BME280;40241;52.684;9.758;2023-03-18T03:20:05;100632.50;;;13.01;61.02
5651;BME280;40241;52.684;9.758;2023-03-18T03:22:31;100636.78;;;13.02;60.97
5651;BME280;40241;52.684;9.758;2023-03-18T03:24:57;100637.28;;;13.00;60.93
5651;BME280;40241;52.684;9.758;2023-03-18T03:27:23;100639.56;;;13.02;60.82
5651;BME280;40241;52.684;9.758;2023-03-18T03:29:49;100637.53;;;13.02;60.92
5651;BME280;40241;52.684;9.758;2023-03-18T03:32:14;100634.75;;;13.02;60.91
5651;BME280;40241;52.684;9.758;2023-03-18T03:34:40;100644.56;;;13.03;60.92
5651;BME280;40241;52.684;9.758;2023-03-18T03:37:06;100649.84;;;13.01;60.90
5651;BME280;40241;52.684;9.758;2023-03-18T03:39:31;100645.81;;;13.02;61.03
5651;BME280;40241;52.684;9.758;2023-03-18T03:41:56;100638.78;;;13.01;61.15
5651;BME280;40241;52.684;9.758;2023-03-18T03:44:22;100638.03;;;13.01;61.13
5651;BME280;40241;52.684;9.758;2023-03-18T03:46:48;100639.81;;;12.98;61.27
5651;BME280;40241;52.684;9.758;2023-03-18T03:49:14;100639.81;;;12.98;61.14
5651;BME280;40241;52.684;9.758;2023-03-18T03:51:39;100636.81;;;12.96;61.14
5651;BME280;40241;52.684;9.758;2023-03-18T03:54:04;100639.56;;;12.96;61.53
5651;BME280;40241;52.684;9.758;2023-03-18T03:56:30;100645.09;;;12.96;61.45
5651;BME280;40241;52.684;9.758;2023-03-18T03:58:56;100639.56;;;12.96;61.36
5651;BME280;40241;52.684;9.758;2023-03-18T04:01:21;100642.56;;;12.98;61.43
5651;BME280;40241;52.684;9.758;2023-03-18T04:03:47;100648.09;;;12.98;61.48
5651;BME280;40241;52.684;9.758;2023-03-18T04:06:12;100653.88;;;12.95;61.38
5651;BME280;40241;52.684;9.758;2023-03-18T04:08:38;100653.41;;;12.91;61.66
5651;BME280;40241;52.684;9.758;2023-03-18T04:11:03;100653.91;;;12.89;61.71
5651;BME280;40241;52.684;9.758;2023-03-18T04:13:29;100645.84;;;12.91;61.79
5651;BME280;40241;52.684;9.758;2023-03-18T04:15:55;100641.09;;;12.92;61.62
5651;BME280;40241;52.684;9.758;2023-03-18T04:18:20;100648.63;;;12.91;61.65
5651;BME280;40241;52.684;9.758;2023-03-18T04:20:45;100650.13;;;12.92;61.78
5651;BME280;40241;52.684;9.758;2023-03-18T04:23:11;100643.34;;;12.93;61.72
5651;BME280;40241;52.684;9.758;2023-03-18T04:25:38;100645.38;;;12.93;61.79
5651;BME280;40241;52.684;9.758;2023-03-18T04:28:04;100653.13;;;12.94;61.76
5651;BME280;40241;52.684;9.758;2023-03-18T04:30:29;100658.91;;;12.96;61.97
5651;BME280;40241;52.684;9.758;2023-03-18T04:32:56;100661.13;;;12.98;61.85
5651;BME280;40241;52.684;9.758;2023-03-18T04:35:22;100662.66;;;12.99;61.96
5651;BME280;40241;52.684;9.758;2023-03-18T04:37:48;100664.41;;;13.02;61.82
5651;BME280;40241;52.684;9.758;2023-03-18T04:40:14;100656.84;;;13.02;61.95
5651;BME280;40241;52.684;9.758;2023-03-18T04:42:40;100644.56;;;13.03;61.96
5651;BME280;40241;52.684;9.758;2023-03-18T04:45:06;100654.84;;;13.03;62.06
5651;BME280;40241;52.684;9.758;2023-03-18T04:47:32;100656.84;;;13.02;61.94
5651;BME280;40241;52.684;9.758;2023-03-18T04:49:59;100665.38;;;13.04;62.15
5651;BME280;40241;52.684;9.758;2023-03-18T04:52:25;100654.09;;;13.02;62.11
5651;BME280;40241;52.684;9.758;2023-03-18T04:54:50;100663.13;;;13.03;62.13
5651;BME280;40241;52.684;9.758;2023-03-18T04:57:16;100673.44;;;13.02;62.02
5651;BME280;40241;52.684;9.758;2023-03-18T04:59:43;100665.13;;;13.02;62.08
5651;BME280;40241;52.684;9.758;2023-03-18T05:02:09;100677.47;;;13.01;62.23
5651;BME280;40241;52.684;9.758;2023-03-18T05:04:34;100690.00;;;13.02;62.23
5651;BME280;40241;52.684;9.758;2023-03-18T05:07:00;100673.44;;;13.02;62.25
5651;BME280;40241;52.684;9.758;2023-03-18T05:09:25;100668.13;;;13.04;62.20
5651;BME280;40241;52.684;9.758;2023-03-18T05:11:51;100669.41;;;13.03;62.25
5651;BME280;40241;52.684;9.758;2023-03-18T05:14:17;100661.66;;;13.02;62.29
5651;BME280;40241;52.684;9.758;2023-03-18T05:16:42;100663.66;;;13.01;62.44
5651;BME280;40241;52.684;9.758;2023-03-18T05:19:07;100667.91;;;13.02;62.35
5651;BME280;40241;52.684;9.758;2023-03-18T05:21:35;100669.19;;;13.01;62.15
5651;BME280;40241;52.684;9.758;2023-03-18T05:24:00;100662.94;;;12.95;62.42
5651;BME280;40241;52.684;9.758;2023-03-18T05:26:26;100658.41;;;12.92;62.20
5651;BME280;40241;52.684;9.758;2023-03-18T05:28:51;100655.41;;;12.85;62.26
5651;BME280;40241;52.684;9.758;2023-03-18T05:31:18;100660.97;;;12.79;62.46
5651;BME280;40241;52.684;9.758;2023-03-18T05:33:44;100659.69;;;12.80;62.52
5651;BME280;40241;52.684;9.758;2023-03-18T05:36:09;100659.44;;;12.78;62.45
5651;BME280;40241;52.684;9.758;2023-03-18T05:38:35;100658.22;;;12.73;62.36
5651;BME280;40241;52.684;9.758;2023-03-18T05:41:00;100666.00;;;12.69;62.46
5651;BME280;40241;52.684;9.758;2023-03-18T05:43:25;100668.31;;;12.60;62.29
5651;BME280;40241;52.684;9.758;2023-03-18T05:45:52;100676.34;;;12.52;62.53
5651;BME280;40241;52.684;9.758;2023-03-18T05:48:18;100682.13;;;12.49;62.52
5651;BME280;40241;52.684;9.758;2023-03-18T05:50:44;100684.66;;;12.47;62.48
5651;BME280;40241;52.684;9.758;2023-03-18T05:53:10;100690.16;;;12.47;62.39
5651;BME280;40241;52.684;9.758;2023-03-18T05:55:40;100695.44;;;12.45;62.43
5651;BME280;40241;52.684;9.758;2023-03-18T05:58:06;100693.91;;;12.44;62.47
5651;BME280;40241;52.684;9.758;2023-03-18T06:00:32;100694.44;;;12.42;62.18
5651;BME280;40241;52.684;9.758;2023-03-18T06:02:59;100706.47;;;12.39;62.31
5651;BME280;40241;52.684;9.758;2023-03-18T06:05:25;100703.69;;;12.39;62.33
5651;BME280;40241;52.684;9.758;2023-03-18T06:07:51;100702.94;;;12.39;62.47
5651;BME280;40241;52.684;9.758;2023-03-18T06:10:18;100704.97;;;12.38;62.35
5651;BME280;40241;52.684;9.758;2023-03-18T06:12:44;100707.72;;;12.38;62.29
5651;BME280;40241;52.684;9.758;2023-03-18T06:15:10;100711.22;;;12.39;62.38
5651;BME280;40241;52.684;9.758;2023-03-18T06:17:37;100705.69;;;12.39;62.25
5651;BME280;40241;52.684;9.758;2023-03-18T06:20:04;100704.47;;;12.40;62.28
5651;BME280;40241;52.684;9.758;2023-03-18T06:22:30;100717.50;;;12.39;62.29
5651;BME280;40241;52.684;9.758;2023-03-18T06:24:56;100716.75;;;12.39;62.41
5651;BME280;40241;52.684;9.758;2023-03-18T06:27:22;100713.97;;;12.39;62.42
5651;BME280;40241;52.684;9.758;2023-03-18T06:29:48;100718.25;;;12.40;62.34
5651;BME280;40241;52.684;9.758;2023-03-18T06:32:13;100722.75;;;12.43;62.53
5651;BME280;40241;52.684;9.758;2023-03-18T06:34:38;100720.50;;;12.47;62.51
5651;BME280;40241;52.684;9.758;2023-03-18T06:37:04;100719.97;;;12.54;62.50
5651;BME280;40241;52.684;9.758;2023-03-18T06:39:29;100719.22;;;12.59;62.59
5651;BME280;40241;52.684;9.758;2023-03-18T06:41:54;100729.28;;;12.62;62.52
5651;BME280;40241;52.684;9.758;2023-03-18T06:44:23;100718.72;;;12.66;62.57
5651;BME280;40241;52.684;9.758;2023-03-18T06:46:48;100718.22;;;12.67;62.55
5651;BME280;40241;52.684;9.758;2023-03-18T06:49:14;100722.72;;;12.70;62.68
5651;BME280;40241;52.684;9.758;2023-03-18T06:51:40;100725.22;;;12.74;62.83
5651;BME280;40241;52.684;9.758;2023-03-18T06:54:06;100724.47;;;12.79;62.61
5651;BME280;40241;52.684;9.758;2023-03-18T06:56:32;100732.25;;;12.86;62.88
5651;BME280;40241;52.684;9.758;2023-03-18T06:59:01;100737.22;;;12.93;62.62
5651;BME280;40241;52.684;9.758;2023-03-18T07:01:27;100735.22;;;12.99;62.59
5651;BME280;40241;52.684;9.758;2023-03-18T07:03:54;100745.47;;;13.04;62.62
5651;BME280;40241;52.684;9.758;2023-03-18T07:06:20;100751.28;;;13.12;62.79
5651;BME280;40241;52.684;9.758;2023-03-18T07:08:45;100757.75;;;13.20;62.70
5651;BME280;40241;52.684;9.758;2023-03-18T07:11:11;100757.75;;;13.25;62.86
5651;BME280;40241;52.684;9.758;2023-03-18T07:13:36;100755.72;;;13.31;62.76
5651;BME280;40241;52.684;9.758;2023-03-18T07:16:02;100764.50;;;13.35;62.78
5651;BME280;40241;52.684;9.758;2023-03-18T07:18:27;100771.78;;;13.38;62.91
5651;BME280;40241;52.684;9.758;2023-03-18T07:20:53;100770.75;;;13.41;62.80
5651;BME280;40241;52.684;9.758;2023-03-18T07:23:19;100783.78;;;13.46;62.90
5651;BME280;40241;52.684;9.758;2023-03-18T07:25:44;100783.03;;;13.51;62.77
5651;BME280;40241;52.684;9.758;2023-03-18T07:28:10;100789.03;;;13.56;62.96
5651;BME280;40241;52.684;9.758;2023-03-18T07:30:36;100791.00;;;13.66;63.00
5651;BME280;40241;52.684;9.758;2023-03-18T07:33:02;100791.47;;;13.76;63.03
5651;BME280;40241;52.684;9.758;2023-03-18T07:35:28;100794.41;;;13.83;63.05
5651;BME280;40241;52.684;9.758;2023-03-18T07:37:54;100791.59;;;13.94;63.04
5651;BME280;40241;52.684;9.758;2023-03-18T07:40:19;100796.06;;;14.03;63.21
5651;BME280;40241;52.684;9.758;2023-03-18T07:42:44;100789.22;;;14.15;63.25
5651;BME280;40241;52.684;9.758;2023-03-18T07:45:10;100790.38;;;14.25;63.08
5651;BME280;40241;52.684;9.758;2023-03-18T07:47:35;100794.13;;;14.33;63.24
5651;BME280;40241;52.684;9.758;2023-03-18T07:50:01;100794.56;;;14.43;63.10
5651;BME280;40241;52.684;9.758;2023-03-18T07:52:28;100799.53;;;14.50;63.38
5651;BME280;40241;52.684;9.758;2023-03-18T07:54:53;100801.22;;;14.58;63.37
5651;BME280;40241;52.684;9.758;2023-03-18T07:57:19;100794.16;;;14.63;63.42
5651;BME280;40241;52.684;9.758;2023-03-18T07:59:44;100802.63;;;14.70;63.38
5651;BME280;40241;52.684;9.758;2023-03-18T08:02:13;100800.59;;;14.76;63.46
5651;BME280;40241;52.684;9.758;2023-03-18T08:04:40;100801.78;;;14.81;63.22
5651;BME280;40241;52.684;9.758;2023-03-18T08:07:07;100803.22;;;14.87;63.36
5651;BME280;40241;52.684;9.758;2023-03-18T08:09:32;100804.66;;;14.94;63.46
5651;BME280;40241;52.684;9.758;2023-03-18T08:11:58;100808.16;;;15.00;63.45
5651;BME280;40241;52.684;9.758;2023-03-18T08:14:24;100811.63;;;15.06;63.50
5651;BME280;40241;52.684;9.758;2023-03-18T08:16:50;100823.63;;;15.14;63.24
5651;BME280;40241;52.684;9.758;2023-03-18T08:19:15;100821.84;;;15.17;63.42
5651;BME280;40241;52.684;9.758;2023-03-18T08:21:40;100817.50;;;15.21;63.47
5651;BME280;40241;52.684;9.758;2023-03-18T08:24:07;100826.22;;;15.31;63.49
5651;BME280;40241;52.684;9.758;2023-03-18T08:26:34;100829.69;;;15.37;63.58
5651;BME280;40241;52.684;9.758;2023-03-18T08:28:59;100832.88;;;15.46;63.46
5651;BME280;40241;52.684;9.758;2023-03-18T08:31:25;100825.25;;;15.52;63.45
5651;BME280;40241;52.684;9.758;2023-03-18T08:33:50;100839.56;;;15.56;63.26
5651;BME280;40241;52.684;9.758;2023-03-18T08:36:18;100829.97;;;15.57;63.38
5651;BME280;40241;52.684;9.758;2023-03-18T08:38:44;100835.22;;;15.61;63.31
5651;BME280;40241;52.684;9.758;2023-03-18T08:41:09;100830.94;;;15.60;63.45
5651;BME280;40241;52.684;9.758;2023-03-18T08:43:35;100837.47;;;15.62;63.38
5651;BME280;40241;52.684;9.758;2023-03-18T08:46:00;100840.19;;;15.68;63.40
5651;BME280;40241;52.684;9.758;2023-03-18T08:48:26;100846.94;;;15.72;63.48
5651;BME280;40241;52.684;9.758;2023-03-18T08:50:51;100852.31;;;15.84;63.27
5651;BME280;40241;52.684;9.758;2023-03-18T08:53:17;100866.53;;;15.99;63.49
5651;BME280;40241;52.684;9.758;2023-03-18T08:55:42;100845.81;;;16.18;63.34
5651;BME280;40241;52.684;9.758;2023-03-18T08:58:08;100854.06;;;16.24;63.18
5651;BME280;40241;52.684;9.758;2023-03-18T09:00:35;100859.19;;;16.20;62.89
5651;BME280;40241;52.684;9.758;2023-03-18T09:03:02;100864.34;;;16.29;62.94
5651;BME280;40241;52.684;9.758;2023-03-18T09:05:27;100862.91;;;16.41;62.78
5651;BME280;40241;52.684;9.758;2023-03-18T09:07:53;100862.28;;;16.48;62.86
5651;BME280;40241;52.684;9.758;2023-03-18T09:10:18;100861.06;;;16.62;62.67
5651;BME280;40241;52.684;9.758;2023-03-18T09:12:45;100862.09;;;16.78;62.48
5651;BME280;40241;52.684;9.758;2023-03-18T09:15:12;100863.97;;;16.88;62.17
5651;BME280;40241;52.684;9.758;2023-03-18T09:17:39;100864.50;;;17.00;62.37
5651;BME280;40241;52.684;9.758;2023-03-18T09:20:12;100861.31;;;17.22;62.08
5651;BME280;40241;52.684;9.758;2023-03-18T09:22:40;100861.00;;;17.39;61.54
5651;BME280;40241;52.684;9.758;2023-03-18T09:25:06;100879.09;;;17.45;61.54
5651;BME280;40241;52.684;9.758;2023-03-18T09:27:32;100869.06;;;17.42;61.17
5651;BME280;40241;52.684;9.758;2023-03-18T09:29:58;100873.53;;;17.45;61.31
5651;BME280;40241;52.684;9.758;2023-03-18T09:32:24;100863.56;;;17.50;61.05
5651;BME280;40241;52.684;9.758;2023-03-18T09:34:50;100876.13;;;17.56;61.18
5651;BME280;40241;52.684;9.758;2023-03-18T09:37:16;100864.16;;;17.61;61.21
5651;BME280;40241;52.684;9.758;2023-03-18T09:39:43;100868.84;;;17.66;60.89
5651;BME280;40241;52.684;9.758;2023-03-18T09:42:20;100875.81;;;17.73;60.57
5651;BME280;40241;52.684;9.758;2023-03-18T09:44:54;100874.84;;;17.70;60.65
5651;BME280;40241;52.684;9.758;2023-03-18T09:52:35;100877.22;;;17.66;60.61
5651;BME280;40241;52.684;9.758;2023-03-18T09:57:38;100874.09;;;17.70;60.48
5651;BME280;40241;52.684;9.758;2023-03-18T10:00:28;100879.44;;;17.68;60.39
5651;BME280;40241;52.684;9.758;2023-03-18T10:02:57;100885.00;;;17.68;60.35
5651;BME280;40241;52.684;9.758;2023-03-18T10:05:30;100880.09;;;17.61;60.28
5651;BME280;40241;52.684;9.758;2023-03-18T10:08:01;100885.22;;;17.57;60.40
5651;BME280;40241;52.684;9.758;2023-03-18T10:10:34;100888.97;;;17.59;60.41
5651;BME280;40241;52.684;9.758;2023-03-18T10:13:06;100887.25;;;17.69;60.46
5651;BME280;40241;52.684;9.758;2023-03-18T10:15:41;100891.31;;;17.81;60.06
5651;BME280;40241;52.684;9.758;2023-03-18T10:18:29;100894.41;;;17.91;59.89
5651;BME280;40241;52.684;9.758;2023-03-18T10:26:13;100891.22;;;18.34;59.33
5651;BME280;40241;52.684;9.758;2023-03-18T10:31:21;100892.56;;;18.74;59.24
5651;BME280;40241;52.684;9.758;2023-03-18T10:34:11;100898.03;;;18.80;58.22
5651;BME280;40241;52.684;9.758;2023-03-18T10:39:23;100897.63;;;18.76;58.46
5651;BME280;40241;52.684;9.758;2023-03-18T10:41:52;100898.78;;;18.80;58.68
5651;BME280;40241;52.684;9.758;2023-03-18T10:44:25;100907.13;;;18.80;58.66
5651;BME280;40241;52.684;9.758;2023-03-18T10:47:00;100906.25;;;18.85;58.42
5651;BME280;40241;52.684;9.758;2023-03-18T10:49:34;100909.56;;;18.84;58.04
5651;BME280;40241;52.684;9.758;2023-03-18T10:55:28;100903.72;;;18.95;58.06
5651;BME280;40241;52.684;9.758;2023-03-18T10:57:55;100910.38;;;19.12;57.99
5651;BME280;40241;52.684;9.758;2023-03-18T11:00:32;100910.44;;;19.20;57.22
5651;BME280;40241;52.684;9.758;2023-03-18T11:02:58;100912.69;;;19.21;57.88
5651;BME280;40241;52.684;9.758;2023-03-18T11:05:27;100918.47;;;19.23;57.57
5651;BME280;40241;52.684;9.758;2023-03-18T11:07:59;100917.91;;;19.25;57.14
5651;BME280;40241;52.684;9.758;2023-03-18T11:10:28;100912.75;;;19.29;57.37
5651;BME280;40241;52.684;9.758;2023-03-18T11:13:00;100917.44;;;19.34;57.20
5651;BME280;40241;52.684;9.758;2023-03-18T11:15:28;100914.31;;;19.37;57.49
5651;BME280;40241;52.684;9.758;2023-03-18T11:17:58;100916.19;;;19.35;56.67
5651;BME280;40241;52.684;9.758;2023-03-18T11:20:36;100915.72;;;19.31;56.28
5651;BME280;40241;52.684;9.758;2023-03-18T11:23:18;100919.97;;;19.24;55.79
5651;BME280;40241;52.684;9.758;2023-03-18T11:26:00;100924.13;;;19.10;56.98
5651;BME280;40241;52.684;9.758;2023-03-18T11:28:28;100926.56;;;19.14;56.71
5651;BME280;40241;52.684;9.758;2023-03-18T11:30:55;100921.94;;;19.16;56.74
5651;BME280;40241;52.684;9.758;2023-03-18T11:33:29;100914.56;;;19.26;55.96
5651;BME280;40241;52.684;9.758;2023-03-18T11:36:21;100916.97;;;19.43;55.96
5651;BME280;40241;52.684;9.758;2023-03-18T11:39:02;100918.34;;;19.57;55.49
5651;BME280;40241;52.684;9.758;2023-03-18T11:41:28;100924.28;;;19.82;55.86
5651;BME280;40241;52.684;9.758;2023-03-18T11:43:59;100933.81;;;19.86;55.14
5651;BME280;40241;52.684;9.758;2023-03-18T11:46:29;100923.94;;;19.85;55.33
5651;BME280;40241;52.684;9.758;2023-03-18T11:48:56;100918.88;;;19.76;55.34
5651;BME280;40241;52.684;9.758;2023-03-18T11:56:56;100920.41;;;19.57;55.18
5651;BME280;40241;52.684;9.758;2023-03-18T12:02:27;100923.22;;;19.57;54.54
5651;BME280;40241;52.684;9.758;2023-03-18T12:18:49;100935.47;;;20.68;53.00
5651;BME280;40241;52.684;9.758;2023-03-18T12:27:01;100924.13;;;20.81;53.30
5651;BME280;40241;52.684;9.758;2023-03-18T12:45:24;100945.41;;;21.15;52.56
5651;BME280;40241;52.684;9.758;2023-03-18T12:47:58;100923.00;;;21.00;51.30
5651;BME280;40241;52.684;9.758;2023-03-18T12:50:36;100923.53;;;20.83;51.87
5651;BME280;40241;52.684;9.758;2023-03-18T12:53:12;100923.53;;;20.90;52.26
5651;BME280;40241;52.684;9.758;2023-03-18T12:55:45;100919.13;;;21.18;52.34
5651;BME280;40241;52.684;9.758;2023-03-18T12:58:19;100925.06;;;21.22;52.04
5651;BME280;40241;52.684;9.758;2023-03-18T13:03:32;100928.59;;;21.00;51.12
5651;BME280;40241;52.684;9.758;2023-03-18T13:06:16;100925.44;;;20.88;51.34
5651;BME280;40241;52.684;9.758;2023-03-18T13:09:04;100930.50;;;21.05;51.15
5651;BME280;40241;52.684;9.758;2023-03-18T13:11:50;100933.28;;;21.12;50.84
5651;BME280;40241;52.684;9.758;2023-03-18T13:20:00;100919.78;;;20.73;51.74
5651;BME280;40241;52.684;9.758;2023-03-18T13:28:06;100921.41;;;20.53;51.30
5651;BME280;40241;52.684;9.758;2023-03-18T13:33:35;100914.91;;;20.51;50.68
5651;BME280;40241;52.684;9.758;2023-03-18T13:36:15;100913.03;;;20.46;50.85
5651;BME280;40241;52.684;9.758;2023-03-18T13:38:59;100921.78;;;20.50;51.11
5651;BME280;40241;52.684;9.758;2023-03-18T13:44:35;100918.25;;;20.49;51.29
5651;BME280;40241;52.684;9.758;2023-03-18T13:47:04;100924.63;;;20.65;51.62
5651;BME280;40241;52.684;9.758;2023-03-18T13:49:32;100927.25;;;20.78;51.25
5651;BME280;40241;52.684;9.758;2023-03-18T13:51:59;100918.72;;;20.83;50.72
5651;BME280;40241;52.684;9.758;2023-03-18T13:54:33;100927.28;;;20.85;49.80
5651;BME280;40241;52.684;9.758;2023-03-18T13:59:43;100914.03;;;20.93;50.48
5651;BME280;40241;52.684;9.758;2023-03-18T14:03:21;100915.34;;;20.92;49.05
5651;BME280;40241;52.684;9.758;2023-03-18T14:05:35;100909.03;;;21.07;49.13
5651;BME280;40241;52.684;9.758;2023-03-18T14:08:31;100914.81;;;21.32;50.22
5651;BME280;40241;52.684;9.758;2023-03-18T14:13:57;100913.63;;;21.65;49.70
5651;BME280;40241;52.684;9.758;2023-03-18T14:19:24;100901.84;;;21.82;48.35
5651;BME280;40241;52.684;9.758;2023-03-18T14:25:08;100903.53;;;21.77;48.09
5651;BME280;40241;52.684;9.758;2023-03-18T14:33:04;100904.63;;;21.89;49.07
5651;BME280;40241;52.684;9.758;2023-03-18T14:38:08;100901.59;;;22.02;48.38
5651;BME280;40241;52.684;9.758;2023-03-18T14:40:39;100894.69;;;22.03;48.56
5651;BME280;40241;52.684;9.758;2023-03-18T14:43:09;100892.09;;;21.98;48.17
5651;BME280;40241;52.684;9.758;2023-03-18T14:45:41;100892.13;;;21.90;48.14
5651;BME280;40241;52.684;9.758;2023-03-18T14:48:28;100891.00;;;21.78;47.08
5651;BME280;40241;52.684;9.758;2023-03-18T14:50:56;100877.75;;;21.79;48.50
5651;BME280;40241;52.684;9.758;2023-03-18T14:53:43;100890.28;;;21.85;47.45
5651;BME280;40241;52.684;9.758;2023-03-18T14:58:44;100887.66;;;21.80;48.21